createdAt,value
2019-04-04T00:04:08.341Z,4.47
2019-04-04T00:09:11.074Z,5.87
2019-04-04T00:14:13.567Z,4.83
2019-04-04T00:19:16.084Z,4.60
2019-04-04T00:24:18.471Z,3.50
2019-04-04T00:29:20.955Z,4.73
2019-04-04T00:34:23.780Z,5.73
2019-04-04T00:39:26.311Z,5.57
2019-04-04T00:44:28.955Z,5.40
2019-04-04T00:49:35.398Z,7.17
2019-04-04T00:54:36.889Z,9.70
2019-04-04T00:59:39.291Z,6.77
2019-04-04T01:04:42.606Z,5.80
2019-04-04T01:09:45.885Z,9.03
2019-04-04T01:14:49.639Z,6.43
2019-04-04T01:19:52.215Z,7.00
2019-04-04T01:24:54.723Z,6.83
2019-04-04T01:29:57.159Z,8.53
2019-04-04T01:34:59.898Z,7.50
2019-04-04T01:40:02.861Z,7.27
2019-04-04T01:45:07.258Z,9.47
2019-04-04T01:50:09.679Z,6.03
2019-04-04T01:55:12.000Z,8.07
2019-04-04T02:00:15.158Z,6.97
2019-04-04T02:05:18.491Z,8.10
2019-04-04T02:10:21.036Z,8.30
2019-04-04T02:15:23.799Z,9.03
2019-04-04T02:20:26.947Z,8.33
2019-04-04T02:25:30.031Z,10.33
2019-04-04T02:30:32.333Z,8.00
2019-04-04T02:35:34.688Z,8.77
2019-04-04T02:40:40.864Z,9.10
2019-04-04T02:45:42.265Z,11.27
2019-04-04T02:50:44.748Z,10.00
2019-04-04T02:55:47.252Z,9.97
2019-04-04T03:00:50.033Z,6.90
2019-04-04T03:05:52.472Z,10.53
2019-04-04T03:10:55.758Z,11.10
2019-04-04T03:15:58.254Z,14.83
2019-04-04T03:21:06.603Z,12.57
2019-04-04T03:26:09.098Z,13.20
2019-04-04T03:31:11.642Z,12.17
2019-04-04T03:36:15.710Z,11.73
2019-04-04T03:41:18.388Z,9.83
2019-04-04T03:46:20.758Z,12.87
2019-04-04T03:51:23.657Z,3.63
2019-04-04T03:56:26.189Z,5.03
2019-04-04T04:01:31.327Z,19.67
2019-04-04T04:06:41.989Z,11.43
2019-04-04T04:12:37.573Z,16.43
2019-04-04T04:17:56.211Z,9.83
2019-04-04T04:22:58.957Z,19.53
2019-04-04T04:28:03.125Z,17.73
2019-04-04T04:33:06.012Z,17.40
2019-04-04T04:38:08.593Z,18.50
2019-04-04T04:43:10.972Z,18.13
2019-04-04T04:48:14.734Z,17.53
2019-04-04T04:53:18.835Z,18.00
2019-04-04T04:58:21.479Z,20.23
2019-04-04T05:03:33.987Z,25.37
2019-04-04T05:08:36.807Z,23.47
2019-04-04T05:13:39.267Z,25.87
2019-04-04T05:18:42.719Z,29.00
2019-04-04T05:23:46.965Z,24.53
2019-04-04T05:28:49.268Z,27.27
2019-04-04T05:33:51.616Z,20.93
2019-04-04T05:38:54.039Z,31.03
2019-04-04T05:43:57.247Z,28.57
2019-04-04T05:49:04.471Z,26.80
2019-04-04T05:54:07.025Z,27.30
2019-04-04T05:59:08.475Z,31.20
2019-04-04T06:04:10.909Z,31.23
2019-04-04T06:09:14.634Z,47.90
2019-04-04T06:14:20.489Z,36.10
2019-04-04T06:19:22.676Z,11.67
2019-04-04T06:24:27.254Z,34.40
2019-04-04T06:29:29.647Z,30.97
2019-04-04T06:34:32.225Z,33.33
2019-04-04T06:39:38.215Z,29.17
2019-04-04T06:44:43.767Z,31.90
2019-04-04T06:49:45.895Z,34.60
2019-04-04T06:54:48.638Z,34.03
2019-04-04T06:59:51.373Z,29.17
2019-04-04T07:04:54.930Z,30.27
2019-04-04T07:09:57.623Z,29.73
2019-04-04T07:15:00.063Z,24.37
2019-04-04T07:20:04.833Z,29.03
2019-04-04T07:25:07.272Z,23.10
2019-04-04T07:30:10.078Z,18.90
2019-04-04T07:35:12.587Z,21.10
2019-04-04T07:40:15.432Z,9.83
2019-04-04T07:45:18.008Z,20.00
2019-04-04T07:55:37.141Z,13.27
2019-04-04T08:01:00.877Z,12.50
2019-04-04T08:06:04.351Z,16.43
2019-04-04T08:11:08.612Z,11.53
2019-04-04T08:16:13.058Z,12.23
2019-04-04T08:21:21.614Z,10.10
2019-04-04T08:26:35.142Z,8.83
2019-04-04T08:31:47.501Z,8.20
2019-04-04T08:42:28.890Z,7.27
2019-04-04T08:47:31.364Z,11.40
2019-04-04T08:52:35.921Z,8.80
2019-04-04T08:57:38.656Z,7.97
2019-04-04T09:02:42.662Z,8.57
2019-04-04T09:07:45.245Z,9.33
2019-04-04T09:12:47.828Z,10.83
2019-04-04T09:17:50.291Z,10.33
2019-04-04T09:22:52.879Z,7.63
2019-04-04T09:27:56.894Z,8.87
2019-04-04T09:32:59.433Z,10.90
2019-04-04T09:38:02.287Z,9.17
2019-04-04T09:43:04.861Z,12.33
2019-04-04T09:48:07.549Z,7.40
2019-04-04T09:53:10.916Z,6.73
2019-04-04T09:58:14.180Z,4.93
2019-04-04T10:03:16.724Z,6.97
2019-04-04T10:08:19.268Z,8.17
2019-04-04T10:13:21.703Z,7.80
2019-04-04T10:18:24.084Z,5.57
2019-04-04T10:23:26.870Z,3.63
2019-04-04T10:28:29.419Z,4.20
2019-04-04T10:33:32.437Z,7.13
2019-04-04T10:38:35.143Z,3.47
2019-04-04T10:43:38.247Z,6.20
2019-04-04T10:48:40.659Z,4.83
2019-04-04T10:53:44.011Z,5.93
2019-04-04T10:58:47.449Z,3.50
2019-04-04T11:03:50.609Z,5.17
2019-04-04T11:08:53.195Z,8.43
2019-04-04T11:13:55.587Z,3.87
2019-04-04T11:19:00.497Z,4.87
2019-04-04T11:24:04.596Z,5.90
2019-04-04T11:29:08.325Z,3.57
2019-04-04T11:34:22.842Z,7.33
2019-04-04T11:39:26.198Z,5.40
2019-04-04T11:44:30.777Z,6.40
2019-04-04T11:49:33.036Z,3.80
2019-04-04T11:54:55.507Z,5.22
2019-04-04T11:59:58.258Z,4.25
2019-04-04T12:05:00.713Z,5.90
2019-04-04T12:10:07.719Z,7.80
2019-04-04T12:15:08.158Z,7.80
2019-04-04T12:20:12.455Z,8.10
2019-04-04T12:25:15.234Z,8.30
2019-04-04T12:30:20.558Z,8.13
2019-04-04T12:35:21.992Z,9.37
2019-04-04T12:40:26.437Z,7.93
2019-04-04T12:45:36.445Z,9.20
2019-04-04T12:50:38.871Z,7.50
2019-04-04T12:55:41.770Z,10.97
2019-04-04T13:00:44.339Z,8.80
2019-04-04T13:05:47.372Z,7.23
2019-04-04T13:10:51.787Z,10.63
2019-04-04T13:15:55.476Z,8.13
2019-04-04T13:20:58.060Z,6.10
2019-04-04T13:26:02.083Z,12.53
2019-04-04T13:31:04.538Z,8.13
2019-04-04T13:36:07.166Z,8.67
2019-04-04T13:41:21.394Z,8.90
2019-04-04T13:46:14.226Z,11.93
2019-04-04T13:51:20.630Z,8.17
2019-04-04T13:56:23.255Z,7.53
2019-04-04T14:01:26.440Z,10.37
2019-04-04T14:06:28.867Z,9.60
2019-04-04T14:11:32.829Z,9.97
2019-04-04T14:16:35.251Z,8.87
2019-04-04T14:21:37.875Z,8.37
2019-04-04T14:26:41.791Z,8.53
2019-04-04T14:31:44.321Z,9.90
2019-04-04T14:36:46.791Z,8.43
2019-04-04T14:41:50.483Z,11.50
2019-04-04T14:46:52.957Z,10.93
2019-04-04T14:51:55.439Z,9.20
2019-04-04T14:56:59.681Z,16.50
2019-04-04T15:02:02.125Z,15.13
2019-04-04T15:07:04.589Z,14.30
2019-04-04T15:12:06.996Z,8.37
2019-04-04T15:17:10.456Z,13.67
2019-04-04T15:22:13.047Z,11.33
2019-04-04T15:27:16.328Z,12.30
2019-04-04T15:32:18.893Z,16.37
2019-04-04T15:37:21.320Z,17.87
2019-04-04T15:42:23.845Z,14.23
2019-04-04T15:47:27.505Z,12.33
2019-04-04T15:52:30.038Z,14.57
2019-04-04T15:57:33.398Z,19.27
2019-04-04T16:02:36.221Z,13.67
2019-04-04T16:07:38.768Z,18.00
2019-04-04T16:12:41.280Z,20.07
2019-04-04T16:18:02.849Z,20.67
2019-04-04T16:23:05.244Z,9.37
2019-04-04T16:28:08.223Z,19.77
2019-04-04T16:33:11.139Z,10.57
2019-04-04T16:38:14.370Z,16.27
2019-04-04T16:43:17.391Z,13.80
2019-04-04T16:48:19.912Z,12.77
2019-04-04T16:53:23.145Z,11.60
2019-04-04T16:58:26.055Z,14.50
2019-04-04T17:03:28.536Z,18.40
2019-04-04T17:08:30.929Z,9.30
2019-04-04T17:13:33.727Z,18.20
2019-04-04T17:18:41.448Z,22.87
2019-04-04T17:23:55.856Z,17.70
2019-04-04T17:28:59.906Z,20.33
2019-04-04T17:34:04.307Z,11.93
2019-04-04T17:39:07.415Z,20.73
2019-04-04T17:44:10.161Z,9.03
2019-04-04T17:49:12.914Z,9.53
2019-04-04T17:54:15.343Z,13.50
2019-04-04T17:59:20.701Z,7.93
2019-04-04T18:04:23.711Z,6.33
2019-04-04T18:09:31.554Z,16.10
2019-04-04T18:14:37.221Z,18.43
2019-04-04T18:19:42.653Z,15.40
2019-04-04T18:24:45.720Z,12.67
2019-04-04T18:29:48.195Z,19.33
2019-04-04T18:34:51.003Z,18.20
2019-04-04T18:39:54.334Z,11.37
2019-04-04T18:44:56.840Z,18.10
2019-04-04T18:49:59.448Z,21.70
2019-04-04T18:55:01.844Z,19.37
2019-04-04T19:00:10.234Z,11.93
2019-04-04T19:05:13.432Z,20.93
2019-04-04T19:10:16.244Z,17.70
2019-04-04T19:15:18.961Z,13.37
2019-04-04T19:20:23.053Z,17.80
2019-04-04T19:25:25.709Z,12.70
2019-04-04T19:30:28.442Z,6.53
2019-04-04T19:35:31.188Z,18.07
2019-04-04T19:40:34.073Z,13.47
2019-04-04T19:45:37.780Z,11.47
2019-04-04T19:50:40.199Z,7.70
2019-04-04T19:55:42.622Z,3.87
2019-04-04T20:00:45.126Z,7.73
2019-04-04T20:05:47.505Z,9.13
2019-04-04T20:10:50.528Z,6.40
2019-04-04T20:15:52.931Z,4.13
2019-04-04T20:20:55.438Z,12.20
2019-04-04T20:25:58.357Z,10.57
2019-04-04T20:31:00.823Z,9.73
2019-04-04T20:36:03.402Z,6.73
2019-04-04T20:41:06.791Z,7.43
2019-04-04T20:46:09.376Z,12.80
2019-04-04T20:51:11.852Z,11.30
2019-04-04T20:56:14.266Z,3.33
2019-04-04T21:01:16.757Z,13.40
2019-04-04T21:06:19.234Z,13.20
2019-04-04T21:11:22.292Z,11.33
2019-04-04T21:16:26.191Z,12.20
2019-04-04T21:21:28.632Z,14.30
2019-04-04T21:26:31.775Z,16.97
2019-04-04T21:31:34.857Z,12.30
2019-04-04T21:36:37.651Z,6.60
2019-04-04T21:41:40.850Z,13.83
2019-04-04T21:46:43.240Z,8.90
2019-04-04T21:51:45.888Z,15.80
2019-04-04T21:56:48.509Z,18.30
2019-04-04T22:01:51.086Z,16.47
2019-04-04T22:06:54.759Z,18.70
2019-04-04T22:11:58.184Z,19.40
2019-04-04T22:17:01.032Z,20.30
2019-04-04T22:22:04.657Z,19.90
2019-04-04T22:27:07.298Z,17.27
2019-04-04T22:32:09.699Z,16.10
2019-04-04T22:37:12.214Z,19.30
2019-04-04T22:42:15.697Z,20.83
2019-04-04T22:47:18.207Z,18.83
2019-04-04T22:52:20.727Z,17.83
2019-04-04T22:57:23.305Z,16.47
2019-04-04T23:02:25.771Z,19.00
2019-04-04T23:07:28.148Z,17.40
2019-04-04T23:12:30.531Z,17.67
2019-04-04T23:17:33.376Z,11.10
2019-04-04T23:22:35.960Z,17.23
2019-04-04T23:27:38.393Z,14.50
2019-04-04T23:32:41.267Z,10.43
2019-04-04T23:37:43.675Z,21.13
2019-04-04T23:42:46.211Z,21.33
2019-04-04T23:47:49.378Z,19.50
2019-04-04T23:52:52.989Z,19.87
2019-04-04T23:57:55.467Z,19.90
